createdAt,value
2017-11-03T00:20:54.019Z,85.51
2017-11-03T00:23:22.259Z,85.42
2017-11-03T00:25:51.278Z,85.55
2017-11-03T00:28:19.517Z,85.30
2017-11-03T00:30:47.782Z,85.22
2017-11-03T00:33:16.785Z,85.04
2017-11-03T00:35:45.038Z,84.74
2017-11-03T00:38:13.373Z,85.09
2017-11-03T00:40:41.616Z,85.35
2017-11-03T00:43:09.862Z,85.95
2017-11-03T00:45:38.111Z,85.93
2017-11-03T00:48:06.354Z,85.91
2017-11-03T00:50:35.363Z,85.71
2017-11-03T00:53:03.610Z,85.70
2017-11-03T00:55:31.858Z,85.64
2017-11-03T00:58:00.109Z,85.62
2017-11-03T01:00:28.355Z,85.50
2017-11-03T01:02:57.362Z,86.47
2017-11-03T01:05:25.613Z,86.78
2017-11-03T01:07:53.850Z,86.72
2017-11-03T01:10:22.093Z,86.58
2017-11-03T01:12:50.342Z,86.36
2017-11-03T01:15:19.347Z,86.06
2017-11-03T01:17:47.593Z,86.08
2017-11-03T01:20:15.837Z,85.95
2017-11-03T01:22:44.085Z,85.95
2017-11-03T01:25:12.326Z,85.89
2017-11-03T01:27:41.332Z,86.13
2017-11-03T01:30:10.339Z,85.73
2017-11-03T01:32:38.594Z,85.78
2017-11-03T01:35:07.606Z,86.00
2017-11-03T01:37:35.854Z,86.32
2017-11-03T01:40:04.107Z,86.57
2017-11-03T01:42:32.350Z,86.72
2017-11-03T01:45:00.594Z,86.95
2017-11-03T01:47:29.611Z,86.55
2017-11-03T01:49:57.850Z,86.84
2017-11-03T01:52:26.874Z,86.22
2017-11-03T01:54:55.112Z,86.96
2017-11-03T01:57:24.128Z,87.07
2017-11-03T01:59:53.135Z,87.34
2017-11-03T02:02:21.389Z,87.25
2017-11-03T02:04:50.389Z,87.23
2017-11-03T02:07:18.638Z,87.11
2017-11-03T02:09:46.883Z,87.13
2017-11-03T02:12:15.141Z,86.96
2017-11-03T02:14:43.382Z,87.24
2017-11-03T02:17:12.408Z,86.83
2017-11-03T02:19:40.638Z,86.44
2017-11-03T02:22:09.654Z,86.45
2017-11-03T02:24:37.909Z,87.02
2017-11-03T02:27:06.141Z,86.72
2017-11-03T02:29:34.378Z,87.80
2017-11-03T02:32:02.626Z,87.43
2017-11-03T02:34:30.872Z,87.88
2017-11-03T02:36:59.120Z,87.71
2017-11-03T02:39:27.357Z,86.74
2017-11-03T02:41:56.376Z,86.92
2017-11-03T02:44:24.609Z,85.75
2017-11-03T02:46:52.861Z,85.64
2017-11-03T02:49:21.106Z,85.86
2017-11-03T02:51:49.363Z,85.05
2017-11-03T02:54:18.364Z,84.36
2017-11-03T02:56:47.374Z,84.80
2017-11-03T02:59:15.613Z,85.10
2017-11-03T03:01:44.635Z,84.97
2017-11-03T03:04:12.886Z,85.75
2017-11-03T03:06:41.894Z,86.06
2017-11-03T03:09:10.133Z,86.48
2017-11-03T03:11:38.382Z,86.47
2017-11-03T03:14:06.627Z,86.89
2017-11-03T03:16:34.862Z,87.01
2017-11-03T03:19:03.112Z,86.78
2017-11-03T03:21:31.362Z,86.57
2017-11-03T03:23:59.601Z,86.56
2017-11-03T03:26:28.619Z,86.74
2017-11-03T03:28:56.853Z,86.89
2017-11-03T03:31:25.108Z,87.32
2017-11-03T03:33:53.350Z,87.31
2017-11-03T03:36:21.591Z,87.22
2017-11-03T03:38:49.830Z,87.81
2017-11-03T03:41:18.075Z,87.91
2017-11-03T03:43:46.322Z,87.72
2017-11-03T03:46:14.555Z,87.56
2017-11-03T03:48:42.801Z,87.54
2017-11-03T03:51:11.060Z,87.31
2017-11-03T03:53:40.067Z,87.27
2017-11-03T03:56:08.306Z,87.08
2017-11-03T03:58:36.549Z,87.16
2017-11-03T04:01:04.795Z,87.20
2017-11-03T04:03:33.039Z,86.89
2017-11-03T04:06:02.051Z,86.85
2017-11-03T04:08:30.303Z,86.76
2017-11-03T04:10:58.538Z,86.66
2017-11-03T04:13:26.791Z,86.59
2017-11-03T04:15:55.039Z,87.27
2017-11-03T04:18:24.058Z,87.03
2017-11-03T04:20:52.328Z,86.95
2017-11-03T04:23:20.573Z,86.82
2017-11-03T04:25:49.586Z,87.10
2017-11-03T04:28:17.835Z,86.61
2017-11-03T04:30:46.078Z,86.51
2017-11-03T04:33:14.330Z,86.41
2017-11-03T04:35:42.574Z,86.38
2017-11-03T04:38:11.601Z,87.12
2017-11-03T04:40:39.834Z,87.03
2017-11-03T04:43:08.851Z,87.42
2017-11-03T04:45:37.087Z,88.78
2017-11-03T04:48:05.334Z,89.37
2017-11-03T04:50:33.578Z,89.27
2017-11-03T04:53:01.833Z,88.86
2017-11-03T04:55:30.838Z,88.97
2017-11-03T04:57:59.866Z,89.09
2017-11-03T05:00:28.098Z,88.64
2017-11-03T05:02:57.118Z,89.40
2017-11-03T05:05:25.367Z,88.89
2017-11-03T05:07:54.375Z,89.27
2017-11-03T05:10:22.623Z,89.47
2017-11-03T05:12:50.868Z,88.91
2017-11-03T05:15:19.108Z,89.56
2017-11-03T05:17:47.368Z,89.23
2017-11-03T05:20:16.372Z,89.40
2017-11-03T05:22:44.621Z,89.07
2017-11-03T05:25:13.634Z,89.44
2017-11-03T05:27:41.885Z,89.46
2017-11-03T05:30:10.131Z,89.70
2017-11-03T05:32:38.386Z,90.10
2017-11-03T05:35:06.634Z,90.19
2017-11-03T05:37:34.883Z,89.98
2017-11-03T05:40:03.133Z,89.51
2017-11-03T05:42:31.391Z,90.08
2017-11-03T05:44:59.628Z,89.65
2017-11-03T05:47:28.646Z,89.71
2017-11-03T05:49:56.887Z,89.97
2017-11-03T05:52:25.898Z,90.39
2017-11-03T05:54:54.142Z,90.01
2017-11-03T05:57:22.390Z,89.68
2017-11-03T05:59:50.636Z,89.23
2017-11-03T06:02:18.886Z,90.05
2017-11-03T06:04:47.893Z,89.92
2017-11-03T06:07:16.155Z,89.75
2017-11-03T06:09:45.683Z,89.85
2017-11-03T06:12:13.935Z,90.40
2017-11-03T06:14:42.960Z,90.67
2017-11-03T06:17:11.203Z,90.75
2017-11-03T06:19:40.221Z,90.94
2017-11-03T06:22:08.466Z,90.33
2017-11-03T06:24:37.482Z,90.09
2017-11-03T06:27:05.726Z,90.07
2017-11-03T06:29:33.977Z,89.92
2017-11-03T06:32:02.225Z,89.71
2017-11-03T06:34:30.477Z,88.99
2017-11-03T06:36:58.722Z,89.41
2017-11-03T06:39:27.007Z,89.30
2017-11-03T06:41:56.016Z,88.79
2017-11-03T06:44:25.034Z,88.68
2017-11-03T06:46:53.269Z,88.93
2017-11-03T06:49:22.395Z,89.44
2017-11-03T06:51:50.642Z,89.66
2017-11-03T06:54:18.886Z,89.64
2017-11-03T06:56:47.126Z,89.69
2017-11-03T06:59:15.378Z,89.51
2017-11-03T07:01:44.383Z,89.22
2017-11-03T07:04:12.634Z,88.99
2017-11-03T07:06:41.644Z,88.79
2017-11-03T07:09:10.665Z,88.24
2017-11-03T07:11:38.903Z,88.05
2017-11-03T07:14:07.919Z,88.29
2017-11-03T07:16:36.166Z,88.63
2017-11-03T07:19:05.187Z,88.56
2017-11-03T07:21:33.430Z,88.15
2017-11-03T07:24:01.685Z,87.79
2017-11-03T07:26:29.939Z,87.29
2017-11-03T07:28:58.182Z,86.64
2017-11-03T07:31:26.427Z,86.38
2017-11-03T07:33:54.685Z,86.32
2017-11-03T07:36:22.927Z,85.87
2017-11-03T07:38:51.175Z,85.73
2017-11-03T07:41:20.185Z,85.69
2017-11-03T07:43:48.432Z,85.59
2017-11-03T07:46:17.443Z,85.44
2017-11-03T07:48:45.718Z,84.45
2017-11-03T07:51:13.968Z,83.60
2017-11-03T07:53:42.218Z,83.57
2017-11-03T07:56:10.466Z,83.21
2017-11-03T07:58:38.705Z,83.16
2017-11-03T08:01:07.714Z,83.14
2017-11-03T08:03:35.970Z,83.50
2017-11-03T08:06:04.980Z,83.52
2017-11-03T08:08:33.989Z,85.19
2017-11-03T08:11:02.229Z,85.20
2017-11-03T08:13:31.246Z,84.49
2017-11-03T08:15:59.485Z,83.36
2017-11-03T08:18:27.737Z,83.97
2017-11-03T08:20:55.983Z,83.98
2017-11-03T08:23:24.226Z,84.01
2017-11-03T08:25:53.234Z,83.64
2017-11-03T08:28:21.482Z,83.37
2017-11-03T08:30:49.721Z,82.91
2017-11-03T08:33:17.971Z,83.01
2017-11-03T08:35:46.203Z,83.35
2017-11-03T08:38:14.456Z,83.05
2017-11-03T08:40:42.699Z,82.23
2017-11-03T08:43:10.938Z,82.77
2017-11-03T08:45:39.950Z,82.22
2017-11-03T08:48:08.964Z,83.00
2017-11-03T08:50:37.202Z,82.80
2017-11-03T08:53:06.230Z,82.56
2017-11-03T08:55:34.467Z,82.59
2017-11-03T08:58:02.721Z,81.92
2017-11-03T09:00:30.958Z,83.17
2017-11-03T09:02:59.204Z,82.41
2017-11-03T09:05:28.203Z,81.46
2017-11-03T09:07:57.223Z,80.80
2017-11-03T09:10:25.453Z,80.25
2017-11-03T09:12:54.469Z,81.08
2017-11-03T09:15:22.716Z,80.27
2017-11-03T09:17:50.957Z,80.40
2017-11-03T09:20:19.211Z,80.56
2017-11-03T09:22:47.463Z,79.96
2017-11-03T09:25:16.478Z,79.75
2017-11-03T09:27:44.728Z,80.79
2017-11-03T09:30:13.738Z,79.93
2017-11-03T09:32:41.990Z,78.89
2017-11-03T09:35:11.006Z,78.07
2017-11-03T09:37:39.266Z,77.70
2017-11-03T09:40:08.278Z,77.14
2017-11-03T09:42:36.525Z,77.91
2017-11-03T09:45:05.540Z,77.37
2017-11-03T09:47:33.790Z,76.61
2017-11-03T09:50:02.854Z,75.67
2017-11-03T09:52:31.106Z,76.82
2017-11-03T09:54:59.353Z,76.61
2017-11-03T09:57:27.606Z,78.00
2017-11-03T09:59:55.854Z,77.56
2017-11-03T10:02:24.102Z,78.81
2017-11-03T10:04:52.353Z,77.85
2017-11-03T10:07:21.366Z,79.03
2017-11-03T10:09:49.617Z,79.22
2017-11-03T10:12:18.622Z,80.84
2017-11-03T10:14:46.869Z,81.48
2017-11-03T10:17:15.109Z,82.52
2017-11-03T10:19:44.269Z,84.46
2017-11-03T10:22:13.269Z,85.40
2017-11-03T10:24:41.519Z,85.67
2017-11-03T10:27:10.523Z,85.16
2017-11-03T10:29:39.530Z,85.18
2017-11-03T10:32:07.773Z,85.25
2017-11-03T10:34:36.791Z,85.63
2017-11-03T10:37:05.038Z,85.92
2017-11-03T10:39:33.282Z,86.84
2017-11-03T10:42:01.524Z,86.93
2017-11-03T10:44:29.778Z,86.90
2017-11-03T10:46:58.787Z,87.09
2017-11-03T10:49:27.034Z,86.68
2017-11-03T10:51:56.039Z,87.09
2017-11-03T10:54:25.051Z,86.95
2017-11-03T10:56:53.291Z,86.86
2017-11-03T10:59:21.543Z,85.89
2017-11-03T11:01:49.783Z,86.14
2017-11-03T11:04:18.033Z,86.36
2017-11-03T11:06:47.038Z,86.93
2017-11-03T11:09:15.286Z,86.29
2017-11-03T11:11:43.526Z,85.51
2017-11-03T11:14:11.769Z,85.79
2017-11-03T11:16:40.018Z,85.08
2017-11-03T11:19:09.032Z,85.75
2017-11-03T11:21:37.273Z,85.07
2017-11-03T11:24:05.522Z,85.17
2017-11-03T11:26:33.775Z,85.64
2017-11-03T11:29:02.015Z,86.08
2017-11-03T11:31:31.034Z,85.67
2017-11-03T11:33:59.280Z,85.29
2017-11-03T11:36:28.290Z,84.27
2017-11-03T11:38:56.541Z,83.66
2017-11-03T11:41:25.549Z,82.18
2017-11-03T11:43:54.567Z,81.21
2017-11-03T11:46:22.811Z,81.94
2017-11-03T11:48:51.823Z,82.17
2017-11-03T11:51:20.069Z,81.67
2017-11-03T11:53:48.310Z,81.17
2017-11-03T11:56:16.553Z,79.89
2017-11-03T11:58:44.805Z,79.56
2017-11-03T12:01:13.823Z,77.62
2017-11-03T12:03:42.075Z,72.08
2017-11-03T12:06:11.082Z,73.12
2017-11-03T12:08:39.356Z,74.80
2017-11-03T12:11:08.372Z,72.15
2017-11-03T12:13:36.618Z,74.27
2017-11-03T12:16:05.633Z,72.17
2017-11-03T12:18:33.886Z,75.12
2017-11-03T12:21:02.900Z,74.67
2017-11-03T12:23:31.149Z,71.14
2017-11-03T12:26:00.176Z,68.56
2017-11-03T12:28:28.419Z,65.03
2017-11-03T12:30:57.448Z,64.89
2017-11-03T12:33:25.691Z,62.84
2017-11-03T12:35:54.706Z,61.70
2017-11-03T12:38:22.950Z,60.62
2017-11-03T12:40:55.746Z,62.74
2017-11-03T12:43:24.001Z,68.57
2017-11-03T12:45:52.263Z,67.26
2017-11-03T12:48:20.507Z,64.95
2017-11-03T12:50:48.757Z,56.17
2017-11-03T12:53:17.002Z,55.18
2017-11-03T12:55:45.254Z,57.45
2017-11-03T12:58:13.509Z,57.89
2017-11-03T13:00:41.768Z,57.31
2017-11-03T13:03:10.014Z,56.07
2017-11-03T13:05:39.034Z,54.89
2017-11-03T13:08:07.288Z,55.07
2017-11-03T13:10:35.545Z,55.83
2017-11-03T13:13:03.794Z,59.74
2017-11-03T13:15:32.055Z,65.47
2017-11-03T13:18:00.306Z,70.18
2017-11-03T13:20:28.558Z,70.57
2017-11-03T13:22:57.570Z,70.28
2017-11-03T13:25:25.826Z,70.63
2017-11-03T13:27:54.075Z,70.48
2017-11-03T13:30:22.327Z,69.92
2017-11-03T13:32:50.581Z,67.84
2017-11-03T13:35:18.834Z,66.88
2017-11-03T13:37:47.849Z,64.87
2017-11-03T13:40:16.112Z,65.29
2017-11-03T13:42:44.369Z,65.95
2017-11-03T13:45:13.390Z,67.40
2017-11-03T13:47:41.645Z,64.41
2017-11-03T13:50:10.665Z,64.40
2017-11-03T13:52:39.031Z,60.11
2017-11-03T13:55:07.288Z,66.11
2017-11-03T13:57:36.296Z,68.12
2017-11-03T14:00:04.557Z,69.81
2017-11-03T14:02:33.575Z,69.67
2017-11-03T14:05:01.833Z,69.64
2017-11-03T14:07:30.861Z,69.76
2017-11-03T14:09:59.120Z,69.75
2017-11-03T14:12:27.377Z,71.29
2017-11-03T14:14:56.402Z,71.13
2017-11-03T14:17:24.653Z,71.48
2017-11-03T14:19:52.912Z,72.14
2017-11-03T14:22:21.925Z,72.08
2017-11-03T14:24:50.191Z,71.35
2017-11-03T14:27:19.208Z,70.53
2017-11-03T14:29:47.465Z,71.54
2017-11-03T14:32:15.715Z,71.70
2017-11-03T14:34:43.973Z,72.16
2017-11-03T14:37:12.223Z,72.42
2017-11-03T14:39:40.475Z,72.35
2017-11-03T14:42:08.738Z,73.78
2017-11-03T14:44:36.996Z,74.15
2017-11-03T14:47:06.027Z,73.45
2017-11-03T14:49:34.276Z,73.57
2017-11-03T14:52:03.298Z,74.02
2017-11-03T14:54:31.604Z,73.82
2017-11-03T14:57:04.028Z,75.00
2017-11-03T15:02:11.461Z,74.28
2017-11-03T15:04:39.977Z,74.42
2017-11-03T15:07:08.232Z,74.90
2017-11-03T15:09:36.494Z,75.39
2017-11-03T15:12:08.374Z,75.63
2017-11-03T15:14:36.714Z,75.59
2017-11-03T15:17:05.058Z,75.40
2017-11-03T15:19:33.455Z,75.88
2017-11-03T15:22:02.590Z,75.53
2017-11-03T15:24:30.944Z,75.26
2017-11-03T15:26:59.320Z,75.72
2017-11-03T15:29:27.682Z,76.61
2017-11-03T15:31:56.759Z,76.75
2017-11-03T15:34:25.015Z,77.00
2017-11-03T15:36:53.303Z,77.05
2017-11-03T15:39:21.570Z,77.49
2017-11-03T15:41:50.602Z,76.78
2017-11-03T15:44:20.102Z,77.05
2017-11-03T15:46:49.127Z,77.07
2017-11-03T15:49:17.381Z,78.21
2017-11-03T15:51:45.643Z,79.02
2017-11-03T15:54:14.659Z,78.39
2017-11-03T15:56:42.909Z,79.29
2017-11-03T15:59:11.920Z,79.53
2017-11-03T16:01:40.166Z,79.78
2017-11-03T16:04:08.414Z,80.57
2017-11-03T16:06:36.665Z,81.24
2017-11-03T16:09:04.933Z,81.51
2017-11-03T16:11:33.204Z,81.92
2017-11-03T16:14:01.467Z,82.50
2017-11-03T16:16:30.498Z,82.68
2017-11-03T16:18:58.787Z,83.02
2017-11-03T16:21:27.044Z,83.28
2017-11-03T16:23:55.294Z,83.66
2017-11-03T16:26:23.563Z,83.69
2017-11-03T16:28:52.583Z,83.90
2017-11-03T16:31:20.847Z,84.01
2017-11-03T16:33:49.132Z,83.93
2017-11-03T16:36:17.385Z,84.29
2017-11-03T16:38:45.645Z,84.67
2017-11-03T16:41:13.892Z,85.06
2017-11-03T16:43:42.151Z,85.30
2017-11-03T16:46:10.408Z,85.23
2017-11-03T16:48:38.648Z,85.29
2017-11-03T16:51:07.669Z,85.23
2017-11-03T16:53:35.936Z,85.33
2017-11-03T16:56:04.192Z,85.51
2017-11-03T16:58:33.199Z,85.50
2017-11-03T17:01:01.453Z,85.29
2017-11-03T17:03:30.263Z,85.16
2017-11-03T17:05:58.519Z,85.37
2017-11-03T17:08:27.540Z,85.53
2017-11-03T17:11:00.488Z,85.66
2017-11-03T17:13:28.796Z,85.75
2017-11-03T17:15:57.197Z,85.97
2017-11-03T17:18:25.519Z,85.79
2017-11-03T17:20:53.903Z,85.37
2017-11-03T17:25:59.067Z,85.27
2017-11-03T17:28:28.074Z,85.50
2017-11-03T17:30:56.330Z,85.58
2017-11-03T17:33:25.350Z,85.75
2017-11-03T17:35:53.605Z,86.01
2017-11-03T17:38:22.624Z,85.81
2017-11-03T17:41:19.717Z,86.08
2017-11-03T17:43:52.404Z,86.05
2017-11-03T17:46:20.775Z,86.23
2017-11-03T17:48:50.110Z,86.25
2017-11-03T17:51:27.342Z,86.53
2017-11-03T18:05:25.678Z,87.51
2017-11-03T18:07:53.960Z,87.92
2017-11-03T18:10:22.235Z,87.80
2017-11-03T18:12:50.513Z,87.71
2017-11-03T18:15:18.823Z,87.31
2017-11-03T18:17:47.106Z,87.16
2017-11-03T18:20:15.370Z,86.89
2017-11-03T18:22:43.632Z,87.22
2017-11-03T18:25:11.873Z,87.48
2017-11-03T18:27:40.121Z,87.14
2017-11-03T18:30:09.054Z,87.45
2017-11-03T18:32:37.351Z,87.05
2017-11-03T18:35:05.674Z,86.82
2017-11-03T18:37:34.756Z,86.31
2017-11-03T18:40:03.009Z,86.55
2017-11-03T18:42:31.293Z,86.93
2017-11-03T18:44:59.589Z,86.96
2017-11-03T18:47:27.861Z,87.15
2017-11-03T18:49:56.082Z,88.05
2017-11-03T18:52:24.327Z,87.58
2017-11-03T18:54:53.338Z,87.98
2017-11-03T18:57:21.633Z,88.21
2017-11-03T18:59:49.909Z,88.42
2017-11-03T19:02:21.224Z,88.65
2017-11-03T19:04:49.477Z,88.61
2017-11-03T19:07:17.746Z,88.73
2017-11-03T19:09:46.030Z,89.70
2017-11-03T19:12:14.324Z,89.35
2017-11-03T19:14:43.326Z,89.81
2017-11-03T19:17:11.579Z,89.98
2017-11-03T19:19:40.638Z,90.27
2017-11-03T19:22:08.885Z,90.22
2017-11-03T19:24:37.131Z,90.34
2017-11-03T19:27:06.157Z,90.39
2017-11-03T19:29:34.399Z,90.46
2017-11-03T19:32:02.651Z,90.53
2017-11-03T19:34:31.074Z,90.60
2017-11-03T19:37:00.096Z,90.54
2017-11-03T19:39:28.416Z,90.54
2017-11-03T19:41:56.713Z,90.58
2017-11-03T19:44:24.953Z,90.52
2017-11-03T19:46:53.264Z,90.66
2017-11-03T19:49:22.269Z,90.76
2017-11-03T19:51:51.401Z,90.91
2017-11-03T19:54:19.694Z,90.75
2017-11-03T19:56:47.943Z,90.72
2017-11-03T19:59:16.237Z,90.68
2017-11-03T20:01:44.548Z,90.69
2017-11-03T20:04:12.806Z,90.60
2017-11-03T20:06:41.112Z,90.46
2017-11-03T20:09:09.357Z,89.92
2017-11-03T20:11:37.618Z,90.15
2017-11-03T20:14:05.950Z,90.38
2017-11-03T20:16:34.197Z,90.40
2017-11-03T20:19:02.504Z,90.58
2017-11-03T20:21:30.798Z,90.54
2017-11-03T20:23:59.045Z,90.55
2017-11-03T20:26:27.292Z,90.53
2017-11-03T20:28:55.554Z,90.68
2017-11-03T20:31:23.814Z,90.94
2017-11-03T20:33:52.124Z,90.75
2017-11-03T20:36:20.366Z,90.79
2017-11-03T20:38:48.677Z,90.93
2017-11-03T20:41:16.973Z,90.86
2017-11-03T20:43:45.219Z,90.96
2017-11-03T20:46:13.526Z,91.08
2017-11-03T20:48:41.835Z,91.08
2017-11-03T20:51:10.893Z,91.10
2017-11-03T20:53:39.919Z,91.02
2017-11-03T20:56:08.975Z,91.04
2017-11-03T20:58:37.214Z,91.13
2017-11-03T21:01:05.462Z,90.95
2017-11-03T21:03:33.740Z,90.83
2017-11-03T21:06:02.750Z,90.74
2017-11-03T21:08:30.999Z,90.77
2017-11-03T21:11:00.091Z,90.89
2017-11-03T21:13:28.339Z,91.14
2017-11-03T21:15:56.596Z,91.21
2017-11-03T21:18:24.989Z,91.04
2017-11-03T21:20:53.345Z,91.26
2017-11-03T21:23:21.601Z,91.33
2017-11-03T21:25:49.842Z,91.46
2017-11-03T21:28:18.971Z,91.62
2017-11-03T21:30:47.230Z,91.74
2017-11-03T21:33:15.484Z,91.83
2017-11-03T21:35:44.500Z,91.75
2017-11-03T21:38:13.523Z,91.75
2017-11-03T21:40:41.796Z,91.75
2017-11-03T21:43:10.122Z,91.84
2017-11-03T21:45:38.362Z,91.96
2017-11-03T21:48:06.626Z,92.04
2017-11-03T21:50:34.886Z,92.08
2017-11-03T21:53:03.195Z,92.03
2017-11-03T21:55:31.427Z,91.99
2017-11-03T21:57:59.747Z,92.09
2017-11-03T22:00:28.048Z,92.17
2017-11-03T22:02:56.406Z,91.99
2017-11-03T22:05:24.649Z,91.64
2017-11-03T22:07:52.953Z,91.51
2017-11-03T22:10:21.265Z,91.21
2017-11-03T22:12:49.548Z,90.86
2017-11-03T22:15:18.550Z,90.93
2017-11-03T22:17:46.801Z,90.79
2017-11-03T22:20:15.048Z,90.71
2017-11-03T22:22:43.309Z,90.49
2017-11-03T22:25:11.628Z,90.56
2017-11-03T22:27:40.662Z,90.65
2017-11-03T22:30:08.952Z,90.75
2017-11-03T22:32:37.197Z,90.92
2017-11-03T22:35:06.211Z,90.82
2017-11-03T22:37:34.564Z,90.92
2017-11-03T22:40:03.569Z,90.89
2017-11-03T22:42:31.896Z,90.60
2017-11-03T22:45:00.998Z,90.96
2017-11-03T22:47:29.294Z,91.23
2017-11-03T22:49:58.353Z,91.46
2017-11-03T22:52:26.776Z,91.19
2017-11-03T22:54:55.830Z,90.81
2017-11-03T22:57:24.105Z,90.98
2017-11-03T22:59:52.363Z,90.30
2017-11-03T23:02:20.666Z,89.76
2017-11-03T23:04:48.908Z,89.55
2017-11-03T23:07:17.201Z,89.86
2017-11-03T23:09:45.799Z,90.45
2017-11-03T23:12:14.086Z,90.82
2017-11-03T23:14:42.333Z,90.62
2017-11-03T23:17:10.715Z,90.22
2017-11-03T23:19:38.982Z,90.32
2017-11-03T23:22:07.231Z,89.92
2017-11-03T23:24:35.489Z,89.64
2017-11-03T23:27:04.495Z,89.47
2017-11-03T23:29:32.755Z,89.41
2017-11-03T23:32:01.801Z,89.39
2017-11-03T23:34:30.182Z,89.63
2017-11-03T23:36:58.435Z,89.62
2017-11-03T23:39:26.702Z,90.12
2017-11-03T23:41:54.950Z,91.04
2017-11-03T23:44:23.979Z,91.48
2017-11-03T23:46:52.274Z,91.69
2017-11-03T23:49:20.602Z,91.86
2017-11-03T23:51:49.618Z,91.94
2017-11-03T23:54:17.878Z,91.98
2017-11-03T23:56:46.138Z,91.87
2017-11-03T23:59:14.386Z,91.99
